Portada
METAR-TAF:

METAR-TAF

Aeroports :

Masqat, Oman

latitud: 23-35N, longitud: 058-17E, altitud: 8 m

Observació

L'informe es va fer fa 24 minuts, a les 23:50 UTC
Vent 7 kt del Oest
Temperatura 23°C
Humitat 78%
Pressió 1016 hPa
Visibilitat 10 km o més
Núvols disperses a una alçada de 2500 ft
Cel ennuvolat a una alçada de 10000 ft

METAR: OOMS 212350Z 26007KT 9999 SCT025 BKN100 23/19 Q1016 NOSIG

Hora: 04:14 (00:14 UTC)

Pronòstic

L'informe es va fer fa 1 hora i 14 minuts, a les 23:00 UTC
Pronòstic vàlid del 22 a les 00 UTC al 23 a les 06 UTC
Vent 12 kt del Oest/Nord-Oest
Visibilitat: 8000 m
Núvols disperses a una alçada de 3000 ft
Evolucionant progressivament
l' 22 a les 06 UTC al 22 a les 08 UTC
Vent 12 kt del Nord
Evolucionant progressivament
l' 22 a les 18 UTC al 22 a les 20 UTC
Vent 5 kt del Sud-Oest

TAF: OOMS 212300Z 2200/2306 30012KT 8000 SCT030 BECMG 2206/2208 01012KT NSC BECMG 2218/2220 22005KT

Observacions i pronòstics meteorològics de més de 4000 aeroports (METAR i TAF).

Les estacions disponibles són els punts grocs i vermells al mapa.

Posi el ratolí al punt desitjat per veure el nom de l'estació.

Feu clic per veure les observacions i els pronòstics meteorològics.

Per canviar el mapa: feu clic els botons verds amb una creu de color negre per apropar; al botó verd amb un guió per allunyar la imatge; o en les fletxes verdes per a mapes adjacents.


METAR-TAF: